sensor_id;sensor_type;location;lat;lon;timestamp;pressure;altitude;pressure_sealevel;temperature;humidity
70434;BME280;57876;47.792;12.960;2023-04-22T00:01:33;96284.03;;;14.53;51.25
70434;BME280;57876;47.792;12.960;2023-04-22T00:03:57;96287.81;;;14.52;51.30
70434;BME280;57876;47.792;12.960;2023-04-22T00:06:22;96294.91;;;14.53;51.36
70434;BME280;57876;47.792;12.960;2023-04-22T00:08:46;96285.09;;;14.52;51.30
70434;BME280;57876;47.792;12.960;2023-04-22T00:11:11;96279.66;;;14.52;51.57
70434;BME280;57876;47.792;12.960;2023-04-22T00:13:35;96276.13;;;14.51;51.43
70434;BME280;57876;47.792;12.960;2023-04-22T00:16:00;96278.59;;;14.53;51.45
70434;BME280;57876;47.792;12.960;2023-04-22T00:18:25;96284.03;;;14.53;51.46
70434;BME280;57876;47.792;12.960;2023-04-22T00:20:50;96291.06;;;14.54;51.50
70434;BME280;57876;47.792;12.960;2023-04-22T00:23:14;96286.75;;;14.53;51.42
70434;BME280;57876;47.792;12.960;2023-04-22T00:25:39;96289.47;;;14.53;51.38
70434;BME280;57876;47.792;12.960;2023-04-22T00:28:03;96287.53;;;14.53;51.45
70434;BME280;57876;47.792;12.960;2023-04-22T00:30:28;96284.81;;;14.53;50.99
70434;BME280;57876;47.792;12.960;2023-04-22T00:32:53;96283.22;;;14.52;51.50
70434;BME280;57876;47.792;12.960;2023-04-22T00:35:17;96283.22;;;14.52;51.60
70434;BME280;57876;47.792;12.960;2023-04-22T00:37:41;96285.09;;;14.52;51.34
70434;BME280;57876;47.792;12.960;2023-04-22T00:40:06;96285.09;;;14.52;51.65
70434;BME280;57876;47.792;12.960;2023-04-22T00:42:31;96292.19;;;14.53;51.30
70434;BME280;57876;47.792;12.960;2023-04-22T00:44:55;96290.53;;;14.52;51.01
70434;BME280;57876;47.792;12.960;2023-04-22T00:47:20;96295.19;;;14.51;51.40
70434;BME280;57876;47.792;12.960;2023-04-22T00:49:48;96291.19;;;14.49;51.47
70434;BME280;57876;47.792;12.960;2023-04-22T00:52:13;96305.00;;;14.52;51.28
70434;BME280;57876;47.792;12.960;2023-04-22T00:54:37;96294.41;;;14.51;51.27
70434;BME280;57876;47.792;12.960;2023-04-22T00:57:02;96293.91;;;14.49;51.35
70434;BME280;57876;47.792;12.960;2023-04-22T00:59:28;96305.78;;;14.53;51.34
70434;BME280;57876;47.792;12.960;2023-04-22T01:01:53;96290.88;;;14.50;51.09
70434;BME280;57876;47.792;12.960;2023-04-22T01:04:17;96294.13;;;14.52;51.29
70434;BME280;57876;47.792;12.960;2023-04-22T01:06:42;96298.69;;;14.52;51.07
70434;BME280;57876;47.792;12.960;2023-04-22T01:09:07;96300.63;;;14.51;51.40
70434;BME280;57876;47.792;12.960;2023-04-22T01:11:33;96301.41;;;14.52;51.48
70434;BME280;57876;47.792;12.960;2023-04-22T01:13:58;96308.00;;;14.51;51.18
70434;BME280;57876;47.792;12.960;2023-04-22T01:16:22;96305.63;;;14.49;51.44
70434;BME280;57876;47.792;12.960;2023-04-22T01:18:48;96302.56;;;14.51;51.85
70434;BME280;57876;47.792;12.960;2023-04-22T01:21:14;96301.75;;;14.50;51.45
70434;BME280;57876;47.792;12.960;2023-04-22T01:23:38;96300.19;;;14.49;51.58
70434;BME280;57876;47.792;12.960;2023-04-22T01:26:03;96308.78;;;14.51;51.20
70434;BME280;57876;47.792;12.960;2023-04-22T01:28:27;96308.34;;;14.49;51.36
70434;BME280;57876;47.792;12.960;2023-04-22T01:30:52;96308.34;;;14.49;51.41
70434;BME280;57876;47.792;12.960;2023-04-22T01:33:17;96305.63;;;14.49;51.18
70434;BME280;57876;47.792;12.960;2023-04-22T01:35:41;96304.16;;;14.52;51.23
70434;BME280;57876;47.792;12.960;2023-04-22T01:38:08;96313.44;;;14.51;51.31
70434;BME280;57876;47.792;12.960;2023-04-22T01:40:34;96315.03;;;14.52;51.35
70434;BME280;57876;47.792;12.960;2023-04-22T01:42:59;96314.56;;;14.50;51.27
70434;BME280;57876;47.792;12.960;2023-04-22T01:45:24;96306.41;;;14.50;51.22
70434;BME280;57876;47.792;12.960;2023-04-22T01:47:48;96301.28;;;14.48;51.37
70434;BME280;57876;47.792;12.960;2023-04-22T01:50:13;96307.19;;;14.50;50.89
70434;BME280;57876;47.792;12.960;2023-04-22T01:52:37;96304.00;;;14.48;51.32
70434;BME280;57876;47.792;12.960;2023-04-22T01:55:01;96304.78;;;14.49;51.25
70434;BME280;57876;47.792;12.960;2023-04-22T01:57:26;96311.84;;;14.50;51.35
70434;BME280;57876;47.792;12.960;2023-04-22T01:59:50;96308.00;;;14.51;51.15
70434;BME280;57876;47.792;12.960;2023-04-22T02:02:14;96306.41;;;14.50;51.23
70434;BME280;57876;47.792;12.960;2023-04-22T02:04:39;96291.66;;;14.51;51.35
70434;BME280;57876;47.792;12.960;2023-04-22T02:07:03;96301.63;;;14.47;51.45
70434;BME280;57876;47.792;12.960;2023-04-22T02:09:28;96300.78;;;14.46;51.50
70434;BME280;57876;47.792;12.960;2023-04-22T02:11:52;96303.69;;;14.50;51.61
70434;BME280;57876;47.792;12.960;2023-04-22T02:14:16;96306.41;;;14.50;51.46
70434;BME280;57876;47.792;12.960;2023-04-22T02:16:41;96309.13;;;14.50;51.04
70434;BME280;57876;47.792;12.960;2023-04-22T02:19:05;96301.63;;;14.47;51.08
70434;BME280;57876;47.792;12.960;2023-04-22T02:21:30;96307.19;;;14.50;50.79
70434;BME280;57876;47.792;12.960;2023-04-22T02:23:57;96303.19;;;14.48;51.20
70434;BME280;57876;47.792;12.960;2023-04-22T02:26:22;96314.56;;;14.50;51.26
70434;BME280;57876;47.792;12.960;2023-04-22T02:28:48;96307.50;;;14.49;51.40
70434;BME280;57876;47.792;12.960;2023-04-22T02:31:12;96301.63;;;14.47;51.55
70434;BME280;57876;47.792;12.960;2023-04-22T02:33:36;96307.06;;;14.47;51.34
70434;BME280;57876;47.792;12.960;2023-04-22T02:36:02;96304.34;;;14.47;51.53
70434;BME280;57876;47.792;12.960;2023-04-22T02:38:26;96303.19;;;14.48;51.32
70434;BME280;57876;47.792;12.960;2023-04-22T02:40:51;96298.25;;;14.50;51.32
70434;BME280;57876;47.792;12.960;2023-04-22T02:43:15;96305.94;;;14.48;50.89
70434;BME280;57876;47.792;12.960;2023-04-22T02:45:39;96309.44;;;14.48;51.17
70434;BME280;57876;47.792;12.960;2023-04-22T02:48:04;96317.94;;;14.47;51.61
70434;BME280;57876;47.792;12.960;2023-04-22T02:50:28;96310.22;;;14.49;51.25
70434;BME280;57876;47.792;12.960;2023-04-22T02:52:53;96311.38;;;14.48;51.33
70434;BME280;57876;47.792;12.960;2023-04-22T02:55:17;96308.34;;;14.49;51.40
70434;BME280;57876;47.792;12.960;2023-04-22T02:57:42;96302.41;;;14.47;51.56
70434;BME280;57876;47.792;12.960;2023-04-22T03:00:07;96304.78;;;14.49;51.41
70434;BME280;57876;47.792;12.960;2023-04-22T03:02:31;96302.06;;;14.49;51.35
70434;BME280;57876;47.792;12.960;2023-04-22T03:04:56;96302.41;;;14.47;51.17
70434;BME280;57876;47.792;12.960;2023-04-22T03:07:20;96302.72;;;14.46;51.26
70434;BME280;57876;47.792;12.960;2023-04-22T03:09:44;96304.78;;;14.49;51.40
70434;BME280;57876;47.792;12.960;2023-04-22T03:12:09;96305.94;;;14.48;50.90
70434;BME280;57876;47.792;12.960;2023-04-22T03:14:33;96303.19;;;14.48;51.21
70434;BME280;57876;47.792;12.960;2023-04-22T03:16:58;96301.28;;;14.48;51.21
70434;BME280;57876;47.792;12.960;2023-04-22T03:19:22;96305.13;;;14.47;51.10
70434;BME280;57876;47.792;12.960;2023-04-22T03:21:46;96303.19;;;14.48;51.18
70434;BME280;57876;47.792;12.960;2023-04-22T03:24:11;96304.34;;;14.47;51.02
70434;BME280;57876;47.792;12.960;2023-04-22T03:26:35;96307.06;;;14.47;51.50
70434;BME280;57876;47.792;12.960;2023-04-22T03:28:59;96302.72;;;14.46;51.35
70434;BME280;57876;47.792;12.960;2023-04-22T03:31:24;96309.78;;;14.47;51.42
70434;BME280;57876;47.792;12.960;2023-04-22T03:33:48;96303.19;;;14.48;51.38
70434;BME280;57876;47.792;12.960;2023-04-22T03:36:13;96303.84;;;14.45;51.33
70434;BME280;57876;47.792;12.960;2023-04-22T03:38:37;96303.06;;;14.44;51.15
70434;BME280;57876;47.792;12.960;2023-04-22T03:41:01;96307.38;;;14.45;51.17
70434;BME280;57876;47.792;12.960;2023-04-22T03:43:26;96311.38;;;14.48;51.51
70434;BME280;57876;47.792;12.960;2023-04-22T03:45:50;96309.78;;;14.47;51.35
70434;BME280;57876;47.792;12.960;2023-04-22T03:48:15;96313.28;;;14.47;51.30
70434;BME280;57876;47.792;12.960;2023-04-22T03:50:39;96303.84;;;14.45;51.09
70434;BME280;57876;47.792;12.960;2023-04-22T03:53:04;96312.50;;;14.47;51.26
70434;BME280;57876;47.792;12.960;2023-04-22T03:55:31;96310.09;;;14.45;50.94
70434;BME280;57876;47.792;12.960;2023-04-22T03:57:55;96307.69;;;14.44;50.99
70434;BME280;57876;47.792;12.960;2023-04-22T04:00:19;96308.50;;;14.44;51.11
70434;BME280;57876;47.792;12.960;2023-04-22T04:02:44;96317.13;;;14.46;51.10
70434;BME280;57876;47.792;12.960;2023-04-22T04:05:08;96308.94;;;14.46;51.38
70434;BME280;57876;47.792;12.960;2023-04-22T04:07:34;96311.38;;;14.48;51.27
70434;BME280;57876;47.792;12.960;2023-04-22T04:09:58;96306.22;;;14.46;51.25
70434;BME280;57876;47.792;12.960;2023-04-22T04:12:23;96318.72;;;14.47;51.48
70434;BME280;57876;47.792;12.960;2023-04-22T04:14:47;96314.72;;;14.45;51.14
70434;BME280;57876;47.792;12.960;2023-04-22T04:17:11;96317.94;;;14.47;51.47
70434;BME280;57876;47.792;12.960;2023-04-22T04:19:37;96316.31;;;14.46;51.21
70434;BME280;57876;47.792;12.960;2023-04-22T04:22:01;96317.94;;;14.47;51.23
70434;BME280;57876;47.792;12.960;2023-04-22T04:24:26;96310.41;;;14.44;51.23
70434;BME280;57876;47.792;12.960;2023-04-22T04:26:51;96319.03;;;14.46;51.53
70434;BME280;57876;47.792;12.960;2023-04-22T04:29:16;96303.84;;;14.45;50.93
70434;BME280;57876;47.792;12.960;2023-04-22T04:31:44;96307.84;;;14.47;51.12
70434;BME280;57876;47.792;12.960;2023-04-22T04:34:09;96307.06;;;14.47;51.25
70434;BME280;57876;47.792;12.960;2023-04-22T04:36:33;96305.94;;;14.48;50.90
70434;BME280;57876;47.792;12.960;2023-04-22T04:38:57;96309.78;;;14.47;51.69
70434;BME280;57876;47.792;12.960;2023-04-22T04:41:22;96308.16;;;14.46;51.26
70434;BME280;57876;47.792;12.960;2023-04-22T04:43:46;96317.13;;;14.46;51.29
70434;BME280;57876;47.792;12.960;2023-04-22T04:46:11;96312.81;;;14.45;51.30
70434;BME280;57876;47.792;12.960;2023-04-22T04:48:35;96310.09;;;14.45;51.06
70434;BME280;57876;47.792;12.960;2023-04-22T04:51:00;96310.09;;;14.45;51.21
70434;BME280;57876;47.792;12.960;2023-04-22T04:53:24;96311.22;;;14.44;51.49
70434;BME280;57876;47.792;12.960;2023-04-22T04:55:48;96311.69;;;14.46;51.16
70434;BME280;57876;47.792;12.960;2023-04-22T04:58:13;96307.06;;;14.47;51.32
70434;BME280;57876;47.792;12.960;2023-04-22T05:00:37;96310.88;;;14.46;51.16
70434;BME280;57876;47.792;12.960;2023-04-22T05:03:02;96315.22;;;14.47;51.35
70434;BME280;57876;47.792;12.960;2023-04-22T05:05:27;96312.50;;;14.47;51.29
70434;BME280;57876;47.792;12.960;2023-04-22T05:07:51;96318.25;;;14.45;51.09
70434;BME280;57876;47.792;12.960;2023-04-22T05:10:16;96320.66;;;14.47;51.15
70434;BME280;57876;47.792;12.960;2023-04-22T05:12:41;96319.03;;;14.46;51.05
70434;BME280;57876;47.792;12.960;2023-04-22T05:15:07;96327.22;;;14.46;51.05
70434;BME280;57876;47.792;12.960;2023-04-22T05:17:31;96323.69;;;14.45;51.44
70434;BME280;57876;47.792;12.960;2023-04-22T05:19:56;96318.56;;;14.44;51.02
70434;BME280;57876;47.792;12.960;2023-04-22T05:22:20;96320.97;;;14.45;51.30
70434;BME280;57876;47.792;12.960;2023-04-22T05:24:45;96328.00;;;14.46;51.30
70434;BME280;57876;47.792;12.960;2023-04-22T05:27:09;96326.09;;;14.47;51.20
70434;BME280;57876;47.792;12.960;2023-04-22T05:29:34;96329.94;;;14.46;51.32
70434;BME280;57876;47.792;12.960;2023-04-22T05:31:58;96324.97;;;14.48;51.37
70434;BME280;57876;47.792;12.960;2023-04-22T05:34:23;96320.97;;;14.45;51.03
70434;BME280;57876;47.792;12.960;2023-04-22T05:36:47;96318.56;;;14.44;51.09
70434;BME280;57876;47.792;12.960;2023-04-22T05:39:11;96313.94;;;14.44;51.20
70434;BME280;57876;47.792;12.960;2023-04-22T05:41:36;96326.09;;;14.47;51.01
70434;BME280;57876;47.792;12.960;2023-04-22T05:44:00;96321.75;;;14.46;51.49
70434;BME280;57876;47.792;12.960;2023-04-22T05:46:25;96324.00;;;14.44;50.64
70434;BME280;57876;47.792;12.960;2023-04-22T05:48:49;96328.81;;;14.47;51.33
70434;BME280;57876;47.792;12.960;2023-04-22T05:51:16;96319.38;;;14.44;51.17
70434;BME280;57876;47.792;12.960;2023-04-22T05:53:41;96319.84;;;14.46;51.02
70434;BME280;57876;47.792;12.960;2023-04-22T05:56:05;96324.19;;;14.47;51.07
70434;BME280;57876;47.792;12.960;2023-04-22T05:58:30;96320.66;;;14.47;51.12
70434;BME280;57876;47.792;12.960;2023-04-22T06:00:54;96312.00;;;14.45;51.10
70434;BME280;57876;47.792;12.960;2023-04-22T06:03:18;96316.81;;;14.48;51.20
70434;BME280;57876;47.792;12.960;2023-04-22T06:05:43;96310.88;;;14.46;51.18
70434;BME280;57876;47.792;12.960;2023-04-22T06:08:07;96317.94;;;14.47;51.23
70434;BME280;57876;47.792;12.960;2023-04-22T06:10:32;96310.88;;;14.46;51.21
70434;BME280;57876;47.792;12.960;2023-04-22T06:12:56;96316.66;;;14.44;51.04
70434;BME280;57876;47.792;12.960;2023-04-22T06:15:20;96311.38;;;14.48;50.99
70434;BME280;57876;47.792;12.960;2023-04-22T06:17:47;96315.53;;;14.45;51.20
70434;BME280;57876;47.792;12.960;2023-04-22T06:20:11;96314.88;;;14.48;51.18
70434;BME280;57876;47.792;12.960;2023-04-22T06:22:36;96312.50;;;14.47;50.93
70434;BME280;57876;47.792;12.960;2023-04-22T06:25:01;96316.00;;;14.47;51.08
70434;BME280;57876;47.792;12.960;2023-04-22T06:27:25;96319.03;;;14.46;50.96
70434;BME280;57876;47.792;12.960;2023-04-22T06:29:50;96318.88;;;14.51;51.14
70434;BME280;57876;47.792;12.960;2023-04-22T06:32:14;96314.09;;;14.48;51.20
70434;BME280;57876;47.792;12.960;2023-04-22T06:34:39;96317.28;;;14.50;50.82
70434;BME280;57876;47.792;12.960;2023-04-22T06:37:03;96308.16;;;14.46;51.30
70434;BME280;57876;47.792;12.960;2023-04-22T06:39:27;96320.00;;;14.50;51.38
70434;BME280;57876;47.792;12.960;2023-04-22T06:41:52;96318.72;;;14.47;51.19
70434;BME280;57876;47.792;12.960;2023-04-22T06:44:16;96321.13;;;14.49;51.08
70434;BME280;57876;47.792;12.960;2023-04-22T06:46:43;96317.59;;;14.48;50.82
70434;BME280;57876;47.792;12.960;2023-04-22T06:49:10;96313.28;;;14.47;51.20
70434;BME280;57876;47.792;12.960;2023-04-22T06:51:46;96309.94;;;14.50;51.01
70434;BME280;57876;47.792;12.960;2023-04-22T06:54:16;96314.56;;;14.50;51.21
70434;BME280;57876;47.792;12.960;2023-04-22T06:56:41;96300.00;;;14.46;51.07
70434;BME280;57876;47.792;12.960;2023-04-22T06:59:11;96308.16;;;14.46;51.10
70434;BME280;57876;47.792;12.960;2023-04-22T07:02:03;96302.41;;;14.47;50.90
70434;BME280;57876;47.792;12.960;2023-04-22T07:04:30;96307.06;;;14.47;51.07
70434;BME280;57876;47.792;12.960;2023-04-22T07:07:02;96311.69;;;14.46;51.08
70434;BME280;57876;47.792;12.960;2023-04-22T07:12:17;96308.66;;;14.48;51.08
70434;BME280;57876;47.792;12.960;2023-04-22T07:15:05;96300.78;;;14.46;50.88
70434;BME280;57876;47.792;12.960;2023-04-22T07:17:33;96308.66;;;14.48;51.17
70434;BME280;57876;47.792;12.960;2023-04-22T07:19:58;96309.13;;;14.50;51.03
70434;BME280;57876;47.792;12.960;2023-04-22T07:22:26;96320.81;;;14.50;51.09
70434;BME280;57876;47.792;12.960;2023-04-22T07:24:58;96312.66;;;14.50;51.14
70434;BME280;57876;47.792;12.960;2023-04-22T07:27:33;96308.66;;;14.48;50.80
70434;BME280;57876;47.792;12.960;2023-04-22T07:30:01;96313.44;;;14.51;51.14
70434;BME280;57876;47.792;12.960;2023-04-22T07:32:28;96310.72;;;14.51;51.23
70434;BME280;57876;47.792;12.960;2023-04-22T07:35:02;96311.06;;;14.49;50.96
70434;BME280;57876;47.792;12.960;2023-04-22T07:37:27;96311.06;;;14.49;51.17
70434;BME280;57876;47.792;12.960;2023-04-22T07:39:51;96304.78;;;14.49;51.00
70434;BME280;57876;47.792;12.960;2023-04-22T07:42:16;96308.50;;;14.53;50.93
70434;BME280;57876;47.792;12.960;2023-04-22T07:44:40;96305.28;;;14.51;51.08
70434;BME280;57876;47.792;12.960;2023-04-22T07:47:07;96308.78;;;14.51;50.65
70434;BME280;57876;47.792;12.960;2023-04-22T07:49:32;96302.56;;;14.51;50.92
70434;BME280;57876;47.792;12.960;2023-04-22T07:51:56;96305.28;;;14.51;51.30
70434;BME280;57876;47.792;12.960;2023-04-22T07:54:21;96309.94;;;14.50;51.12
70434;BME280;57876;47.792;12.960;2023-04-22T07:56:47;96308.78;;;14.51;51.11
70434;BME280;57876;47.792;12.960;2023-04-22T07:59:12;96312.81;;;14.54;51.11
70434;BME280;57876;47.792;12.960;2023-04-22T08:01:38;96308.00;;;14.51;50.98
70434;BME280;57876;47.792;12.960;2023-04-22T08:04:03;96320.47;;;14.52;51.26
70434;BME280;57876;47.792;12.960;2023-04-22T08:06:30;96302.56;;;14.51;51.15
70434;BME280;57876;47.792;12.960;2023-04-22T08:08:58;96306.59;;;14.53;51.25
70434;BME280;57876;47.792;12.960;2023-04-22T08:11:22;96301.41;;;14.52;51.07
70434;BME280;57876;47.792;12.960;2023-04-22T08:13:47;96307.88;;;14.56;51.12
70434;BME280;57876;47.792;12.960;2023-04-22T08:16:11;96310.09;;;14.54;50.56
70434;BME280;57876;47.792;12.960;2023-04-22T08:18:35;96310.59;;;14.56;50.79
70434;BME280;57876;47.792;12.960;2023-04-22T08:21:03;96313.63;;;14.54;51.20
70434;BME280;57876;47.792;12.960;2023-04-22T08:23:27;96297.28;;;14.54;51.12
70434;BME280;57876;47.792;12.960;2023-04-22T08:25:52;96312.19;;;14.57;50.92
70434;BME280;57876;47.792;12.960;2023-04-22T08:28:16;96305.94;;;14.57;51.01
70434;BME280;57876;47.792;12.960;2023-04-22T08:30:41;96304.34;;;14.56;50.85
70434;BME280;57876;47.792;12.960;2023-04-22T08:33:05;96298.13;;;14.55;50.95
70434;BME280;57876;47.792;12.960;2023-04-22T08:35:34;96294.13;;;14.52;51.12
70434;BME280;57876;47.792;12.960;2023-04-22T08:37:59;96305.63;;;14.58;50.97
70434;BME280;57876;47.792;12.960;2023-04-22T08:40:27;96304.00;;;14.57;50.84
70434;BME280;57876;47.792;12.960;2023-04-22T08:42:52;96303.69;;;14.59;51.10
70434;BME280;57876;47.792;12.960;2023-04-22T08:48:35;96310.28;;;14.58;50.76
70434;BME280;57876;47.792;12.960;2023-04-22T08:51:00;96306.28;;;14.55;51.11
70434;BME280;57876;47.792;12.960;2023-04-22T08:53:27;96298.41;;;14.53;50.93
70434;BME280;57876;47.792;12.960;2023-04-22T08:55:58;96299.69;;;14.56;50.94
70434;BME280;57876;47.792;12.960;2023-04-22T08:58:29;96298.13;;;14.55;50.74
70434;BME280;57876;47.792;12.960;2023-04-22T09:01:03;96295.06;;;14.57;50.85
70434;BME280;57876;47.792;12.960;2023-04-22T09:03:43;96287.22;;;14.55;50.80
70434;BME280;57876;47.792;12.960;2023-04-22T09:06:09;96287.69;;;14.57;50.79
70434;BME280;57876;47.792;12.960;2023-04-22T09:08:46;96289.47;;;14.53;50.73
70434;BME280;57876;47.792;12.960;2023-04-22T09:11:17;96288.81;;;14.56;50.92
70434;BME280;57876;47.792;12.960;2023-04-22T09:13:42;96291.22;;;14.58;50.75
70434;BME280;57876;47.792;12.960;2023-04-22T09:16:08;96293.47;;;14.56;51.28
70434;BME280;57876;47.792;12.960;2023-04-22T09:18:42;96284.97;;;14.57;51.00
70434;BME280;57876;47.792;12.960;2023-04-22T09:21:17;96286.41;;;14.54;50.83
70434;BME280;57876;47.792;12.960;2023-04-22T09:23:52;96292.03;;;14.58;51.04
70434;BME280;57876;47.792;12.960;2023-04-22T09:27:11;96276.13;;;14.51;51.31
70434;BME280;57876;47.792;12.960;2023-04-22T09:29:54;96284.97;;;14.57;50.97
70434;BME280;57876;47.792;12.960;2023-04-22T09:32:19;96279.53;;;14.57;50.92
70434;BME280;57876;47.792;12.960;2023-04-22T09:34:56;96273.13;;;14.53;51.12
70434;BME280;57876;47.792;12.960;2023-04-22T09:37:27;96266.06;;;14.52;50.89
70434;BME280;57876;47.792;12.960;2023-04-22T09:39:52;96275.22;;;14.56;51.01
70434;BME280;57876;47.792;12.960;2023-04-22T09:45:49;96261.47;;;14.52;50.71
70434;BME280;57876;47.792;12.960;2023-04-22T09:48:21;96259.81;;;14.51;50.79
70434;BME280;57876;47.792;12.960;2023-04-22T09:51:18;96259.03;;;14.51;50.56
70434;BME280;57876;47.792;12.960;2023-04-22T09:53:57;96251.38;;;14.53;51.37
70434;BME280;57876;47.792;12.960;2023-04-22T09:59:05;96254.88;;;14.53;50.74
70434;BME280;57876;47.792;12.960;2023-04-22T10:01:39;96251.38;;;14.53;50.86
70434;BME280;57876;47.792;12.960;2023-04-22T10:04:04;96253.44;;;14.56;51.09
70434;BME280;57876;47.792;12.960;2023-04-22T10:06:29;96251.03;;;14.54;50.77
70434;BME280;57876;47.792;12.960;2023-04-22T10:08:58;96249.72;;;14.52;50.85
70434;BME280;57876;47.792;12.960;2023-04-22T10:11:34;96241.91;;;14.50;50.76
70434;BME280;57876;47.792;12.960;2023-04-22T10:14:02;96252.31;;;14.57;50.94
70434;BME280;57876;47.792;12.960;2023-04-22T10:16:30;96242.06;;;14.54;50.81
70434;BME280;57876;47.792;12.960;2023-04-22T10:18:59;96241.28;;;14.53;50.60
70434;BME280;57876;47.792;12.960;2023-04-22T10:21:25;96238.56;;;14.53;50.63
70434;BME280;57876;47.792;12.960;2023-04-22T10:23:50;96238.25;;;14.55;50.90
70434;BME280;57876;47.792;12.960;2023-04-22T10:29:05;96238.25;;;14.55;51.28
70434;BME280;57876;47.792;12.960;2023-04-22T10:31:30;96229.59;;;14.53;50.82
70434;BME280;57876;47.792;12.960;2023-04-22T10:34:11;96233.41;;;14.52;50.65
70434;BME280;57876;47.792;12.960;2023-04-22T10:36:52;96228.81;;;14.52;51.01
70434;BME280;57876;47.792;12.960;2023-04-22T10:39:19;96223.66;;;14.51;51.00
70434;BME280;57876;47.792;12.960;2023-04-22T10:41:53;96227.03;;;14.57;50.98
70434;BME280;57876;47.792;12.960;2023-04-22T10:44:19;96217.06;;;14.52;50.93
70434;BME280;57876;47.792;12.960;2023-04-22T10:49:21;96212.47;;;14.52;50.88
70434;BME280;57876;47.792;12.960;2023-04-22T10:51:55;96213.41;;;14.57;50.99
70434;BME280;57876;47.792;12.960;2023-04-22T10:57:08;96209.09;;;14.56;50.84
70434;BME280;57876;47.792;12.960;2023-04-22T10:59:54;96209.75;;;14.52;50.92
70434;BME280;57876;47.792;12.960;2023-04-22T11:02:21;96205.09;;;14.53;51.09
70434;BME280;57876;47.792;12.960;2023-04-22T11:04:47;96205.59;;;14.55;50.57
70434;BME280;57876;47.792;12.960;2023-04-22T11:09:43;96209.91;;;14.56;50.91
70434;BME280;57876;47.792;12.960;2023-04-22T11:15:13;96209.91;;;14.56;50.79
70434;BME280;57876;47.792;12.960;2023-04-22T11:17:43;96211.81;;;14.56;50.61
70434;BME280;57876;47.792;12.960;2023-04-22T11:20:11;96195.31;;;14.52;50.95
70434;BME280;57876;47.792;12.960;2023-04-22T11:22:56;96196.94;;;14.53;51.05
70434;BME280;57876;47.792;12.960;2023-04-22T11:25:27;96201.72;;;14.56;50.88
70434;BME280;57876;47.792;12.960;2023-04-22T11:27:55;96189.84;;;14.52;50.86
70434;BME280;57876;47.792;12.960;2023-04-22T11:30:24;96188.78;;;14.53;50.64
70434;BME280;57876;47.792;12.960;2023-04-22T11:32:57;96191.50;;;14.53;50.85
70434;BME280;57876;47.792;12.960;2023-04-22T11:35:30;96189.72;;;14.57;50.98
70434;BME280;57876;47.792;12.960;2023-04-22T11:38:04;96183.34;;;14.53;50.92
70434;BME280;57876;47.792;12.960;2023-04-22T11:40:43;96176.25;;;14.52;50.69
70434;BME280;57876;47.792;12.960;2023-04-22T11:43:09;96178.97;;;14.52;51.20
70434;BME280;57876;47.792;12.960;2023-04-22T11:45:45;96181.56;;;14.57;50.52
70434;BME280;57876;47.792;12.960;2023-04-22T11:48:10;96179.97;;;14.56;50.84
70434;BME280;57876;47.792;12.960;2023-04-22T11:50:36;96180.75;;;14.57;50.80
70434;BME280;57876;47.792;12.960;2023-04-22T11:53:20;96174.03;;;14.54;51.08
70434;BME280;57876;47.792;12.960;2023-04-22T11:55:51;96176.75;;;14.54;51.20
70434;BME280;57876;47.792;12.960;2023-04-22T11:58:22;96174.03;;;14.54;50.94
70434;BME280;57876;47.792;12.960;2023-04-22T12:00:49;96169.72;;;14.53;50.89
70434;BME280;57876;47.792;12.960;2023-04-22T12:03:22;96178.84;;;14.57;50.81
70434;BME280;57876;47.792;12.960;2023-04-22T12:06:08;96172.59;;;14.57;50.85
70434;BME280;57876;47.792;12.960;2023-04-22T12:08:34;96166.22;;;14.52;50.74
70434;BME280;57876;47.792;12.960;2023-04-22T12:11:02;96174.84;;;14.54;50.76
70434;BME280;57876;47.792;12.960;2023-04-22T12:13:45;96165.22;;;14.57;50.81
70434;BME280;57876;47.792;12.960;2023-04-22T12:16:13;96163.94;;;14.54;51.00
70434;BME280;57876;47.792;12.960;2023-04-22T12:18:51;96167.50;;;14.55;50.69
70434;BME280;57876;47.792;12.960;2023-04-22T12:21:19;96170.66;;;14.57;50.80
70434;BME280;57876;47.792;12.960;2023-04-22T12:23:48;96162.50;;;14.57;50.91
70434;BME280;57876;47.792;12.960;2023-04-22T12:26:14;96163.94;;;14.54;50.62
70434;BME280;57876;47.792;12.960;2023-04-22T12:28:40;96163.63;;;14.56;50.81
70434;BME280;57876;47.792;12.960;2023-04-22T12:31:06;96165.22;;;14.57;51.01
70434;BME280;57876;47.792;12.960;2023-04-22T12:33:31;96158.19;;;14.56;50.80
70434;BME280;57876;47.792;12.960;2023-04-22T12:35:58;96158.19;;;14.56;50.92
70434;BME280;57876;47.792;12.960;2023-04-22T12:38:22;96151.16;;;14.55;50.85
70434;BME280;57876;47.792;12.960;2023-04-22T12:40:46;96147.31;;;14.56;50.82
70434;BME280;57876;47.792;12.960;2023-04-22T12:43:11;96148.75;;;14.53;50.83
70434;BME280;57876;47.792;12.960;2023-04-22T12:45:36;96150.81;;;14.57;50.67
70434;BME280;57876;47.792;12.960;2023-04-22T12:48:00;96150.03;;;14.56;50.91
70434;BME280;57876;47.792;12.960;2023-04-22T12:50:25;96159.78;;;14.57;51.08
70434;BME280;57876;47.792;12.960;2023-04-22T12:52:49;96151.63;;;14.57;50.81
70434;BME280;57876;47.792;12.960;2023-04-22T12:55:14;96157.41;;;14.56;50.74
70434;BME280;57876;47.792;12.960;2023-04-22T12:57:39;96143.31;;;14.53;50.96
70434;BME280;57876;47.792;12.960;2023-04-22T13:00:05;96141.88;;;14.56;50.76
70434;BME280;57876;47.792;12.960;2023-04-22T13:09:21;96137.09;;;14.53;50.77
70434;BME280;57876;47.792;12.960;2023-04-22T13:15:10;96134.28;;;14.70;50.70
70434;BME280;57876;47.792;12.960;2023-04-22T13:17:37;96132.19;;;15.06;50.44
70434;BME280;57876;47.792;12.960;2023-04-22T13:20:07;96129.69;;;15.43;50.38
70434;BME280;57876;47.792;12.960;2023-04-22T13:22:32;96132.97;;;15.78;50.21
70434;BME280;57876;47.792;12.960;2023-04-22T13:24:57;96124.84;;;16.02;49.93